sensor_id;sensor_type;location;lat;lon;timestamp;pressure;altitude;pressure_sealevel;temperature;humidity
37832;BME280;23671;38.090;-122.570;2023-02-17T00:01:32;102147.78;;;11.80;60.88
37832;BME280;23671;38.090;-122.570;2023-02-17T00:04:00;102132.66;;;11.82;60.63
37832;BME280;23671;38.090;-122.570;2023-02-17T00:06:29;102145.91;;;11.82;60.80
37832;BME280;23671;38.090;-122.570;2023-02-17T00:08:57;102132.66;;;11.82;60.90
37832;BME280;23671;38.090;-122.570;2023-02-17T00:11:26;102128.13;;;11.84;60.75
37832;BME280;23671;38.090;-122.570;2023-02-17T00:13:54;102129.91;;;11.84;60.71
37832;BME280;23671;38.090;-122.570;2023-02-17T00:16:25;102120.19;;;11.84;60.82
37832;BME280;23671;38.090;-122.570;2023-02-17T00:18:56;102125.38;;;11.86;60.56
37832;BME280;23671;38.090;-122.570;2023-02-17T00:21:26;102128.88;;;11.86;60.96
37832;BME280;23671;38.090;-122.570;2023-02-17T00:23:53;102119.25;;;11.85;60.63
37832;BME280;23671;38.090;-122.570;2023-02-17T00:26:39;102115.66;;;11.86;60.66
37832;BME280;23671;38.090;-122.570;2023-02-17T00:29:06;102115.66;;;11.86;61.55
37832;BME280;23671;38.090;-122.570;2023-02-17T00:31:33;102116.50;;;11.87;60.82
37832;BME280;23671;38.090;-122.570;2023-02-17T00:34:00;102117.38;;;11.88;61.43
37832;BME280;23671;38.090;-122.570;2023-02-17T00:36:28;102116.41;;;11.88;61.58
37832;BME280;23671;38.090;-122.570;2023-02-17T00:38:56;102116.41;;;11.88;61.20
37832;BME280;23671;38.090;-122.570;2023-02-17T00:41:25;102115.66;;;11.86;61.51
37832;BME280;23671;38.090;-122.570;2023-02-17T00:43:52;102107.63;;;11.88;61.59
37832;BME280;23671;38.090;-122.570;2023-02-17T00:46:20;102110.19;;;11.90;61.09
37832;BME280;23671;38.090;-122.570;2023-02-17T00:48:47;102113.75;;;11.88;61.31
37832;BME280;23671;38.090;-122.570;2023-02-17T00:51:16;102115.56;;;11.88;61.49
37832;BME280;23671;38.090;-122.570;2023-02-17T00:53:43;102117.38;;;11.88;61.74
37832;BME280;23671;38.090;-122.570;2023-02-17T00:56:11;102113.75;;;11.88;61.33
37832;BME280;23671;38.090;-122.570;2023-02-17T00:58:38;102113.75;;;11.88;61.83
37832;BME280;23671;38.090;-122.570;2023-02-17T01:01:08;102117.38;;;11.88;61.51
37832;BME280;23671;38.090;-122.570;2023-02-17T01:03:35;102116.50;;;11.87;61.02
37832;BME280;23671;38.090;-122.570;2023-02-17T01:06:07;102111.31;;;11.85;61.47
37832;BME280;23671;38.090;-122.570;2023-02-17T01:08:35;102106.78;;;11.88;61.21
37832;BME280;23671;38.090;-122.570;2023-02-17T01:11:02;102112.06;;;11.88;61.58
37832;BME280;23671;38.090;-122.570;2023-02-17T01:13:29;102104.22;;;11.86;61.24
37832;BME280;23671;38.090;-122.570;2023-02-17T01:15:56;102100.75;;;11.85;61.77
37832;BME280;23671;38.090;-122.570;2023-02-17T01:18:24;102099.78;;;11.86;61.60
37832;BME280;23671;38.090;-122.570;2023-02-17T01:20:52;102099.03;;;11.84;61.15
37832;BME280;23671;38.090;-122.570;2023-02-17T01:23:19;102102.53;;;11.85;61.72
37832;BME280;23671;38.090;-122.570;2023-02-17T01:25:47;102092.97;;;11.82;61.70
37832;BME280;23671;38.090;-122.570;2023-02-17T01:28:19;102102.69;;;11.82;60.69
37832;BME280;23671;38.090;-122.570;2023-02-17T01:30:47;102098.38;;;11.81;61.41
37832;BME280;23671;38.090;-122.570;2023-02-17T01:33:14;102103.56;;;11.82;61.23
37832;BME280;23671;38.090;-122.570;2023-02-17T01:35:41;102098.47;;;11.79;61.81
37832;BME280;23671;38.090;-122.570;2023-02-17T01:38:09;102088.81;;;11.78;61.55
37832;BME280;23671;38.090;-122.570;2023-02-17T01:40:36;102091.56;;;11.77;61.08
37832;BME280;23671;38.090;-122.570;2023-02-17T01:43:05;102086.38;;;11.75;61.67
37832;BME280;23671;38.090;-122.570;2023-02-17T01:45:39;102082.00;;;11.74;61.03
37832;BME280;23671;38.090;-122.570;2023-02-17T01:48:21;102084.00;;;11.71;61.50
37832;BME280;23671;38.090;-122.570;2023-02-17T01:50:54;102085.78;;;11.70;60.87
37832;BME280;23671;38.090;-122.570;2023-02-17T01:53:47;102085.06;;;11.68;61.37
37832;BME280;23671;38.090;-122.570;2023-02-17T01:56:16;102080.81;;;11.66;61.04
37832;BME280;23671;38.090;-122.570;2023-02-17T01:58:49;102079.25;;;11.62;61.20
37832;BME280;23671;38.090;-122.570;2023-02-17T02:01:17;102082.81;;;11.61;60.84
37832;BME280;23671;38.090;-122.570;2023-02-17T02:03:45;102088.22;;;11.59;60.86
37832;BME280;23671;38.090;-122.570;2023-02-17T02:06:17;102088.41;;;11.56;61.43
37832;BME280;23671;38.090;-122.570;2023-02-17T02:09:00;102091.25;;;11.53;60.90
37832;BME280;23671;38.090;-122.570;2023-02-17T02:11:28;102096.72;;;11.50;60.96
37832;BME280;23671;38.090;-122.570;2023-02-17T02:13:56;102086.16;;;11.50;61.21
37832;BME280;23671;38.090;-122.570;2023-02-17T02:16:35;102089.91;;;11.46;60.86
37832;BME280;23671;38.090;-122.570;2023-02-17T02:19:34;102088.31;;;11.44;60.93
37832;BME280;23671;38.090;-122.570;2023-02-17T02:33:49;102102.47;;;11.29;60.87
37832;BME280;23671;38.090;-122.570;2023-02-17T02:36:24;102109.63;;;11.27;61.22
37832;BME280;23671;38.090;-122.570;2023-02-17T02:46:34;102105.25;;;11.12;61.33
37832;BME280;23671;38.090;-122.570;2023-02-17T02:49:04;102108.00;;;11.10;60.69
37832;BME280;23671;38.090;-122.570;2023-02-17T02:51:47;102107.03;;;11.11;60.54
37832;BME280;23671;38.090;-122.570;2023-02-17T02:54:21;102110.91;;;11.06;60.54
37832;BME280;23671;38.090;-122.570;2023-02-17T03:05:35;102107.53;;;10.88;60.32
37832;BME280;23671;38.090;-122.570;2023-02-17T03:08:11;102107.88;;;10.82;60.48
37832;BME280;23671;38.090;-122.570;2023-02-17T03:10:51;102114.22;;;10.79;60.20
37832;BME280;23671;38.090;-122.570;2023-02-17T03:13:20;102107.31;;;10.77;59.97
37832;BME280;23671;38.090;-122.570;2023-02-17T03:15:48;102108.28;;;10.76;60.62
37832;BME280;23671;38.090;-122.570;2023-02-17T03:18:15;102106.75;;;10.72;59.76
37832;BME280;23671;38.090;-122.570;2023-02-17T03:20:56;102106.13;;;10.67;59.99
37832;BME280;23671;38.090;-122.570;2023-02-17T03:23:27;102108.97;;;10.64;59.64
37832;BME280;23671;38.090;-122.570;2023-02-17T03:25:54;102113.59;;;10.60;59.75
37832;BME280;23671;38.090;-122.570;2023-02-17T03:28:21;102108.53;;;10.56;59.62
37832;BME280;23671;38.090;-122.570;2023-02-17T03:30:48;102102.41;;;10.55;60.04
37832;BME280;23671;38.090;-122.570;2023-02-17T03:33:15;102093.91;;;10.50;59.87
37832;BME280;23671;38.090;-122.570;2023-02-17T03:35:42;102094.16;;;10.46;59.91
37832;BME280;23671;38.090;-122.570;2023-02-17T03:38:09;102091.50;;;10.46;59.71
37832;BME280;23671;38.090;-122.570;2023-02-17T03:40:36;102095.34;;;10.40;60.10
37832;BME280;23671;38.090;-122.570;2023-02-17T03:43:03;102093.81;;;10.36;60.00
37832;BME280;23671;38.090;-122.570;2023-02-17T03:45:30;102097.41;;;10.35;59.93
37832;BME280;23671;38.090;-122.570;2023-02-17T03:48:00;102091.53;;;10.30;59.78
37832;BME280;23671;38.090;-122.570;2023-02-17T03:50:27;102083.03;;;10.25;59.84
37832;BME280;23671;38.090;-122.570;2023-02-17T03:52:54;102086.69;;;10.23;60.05
37832;BME280;23671;38.090;-122.570;2023-02-17T03:55:21;102090.41;;;10.19;59.88
37832;BME280;23671;38.090;-122.570;2023-02-17T03:57:48;102083.59;;;10.15;60.09
37832;BME280;23671;38.090;-122.570;2023-02-17T04:00:19;102098.69;;;10.13;59.90
37832;BME280;23671;38.090;-122.570;2023-02-17T04:02:47;102096.34;;;10.06;60.20
37832;BME280;23671;38.090;-122.570;2023-02-17T04:05:14;102083.41;;;10.02;60.07
37832;BME280;23671;38.090;-122.570;2023-02-17T04:07:41;102097.63;;;9.99;60.64
37832;BME280;23671;38.090;-122.570;2023-02-17T04:10:09;102098.81;;;9.94;60.31
37832;BME280;23671;38.090;-122.570;2023-02-17T04:12:36;102087.50;;;9.92;60.27
37832;BME280;23671;38.090;-122.570;2023-02-17T04:15:03;102082.44;;;9.87;60.16
37832;BME280;23671;38.090;-122.570;2023-02-17T04:17:30;102089.69;;;9.84;60.25
37832;BME280;23671;38.090;-122.570;2023-02-17T04:19:57;102085.44;;;9.81;60.33
37832;BME280;23671;38.090;-122.570;2023-02-17T04:22:24;102092.59;;;9.79;60.66
37832;BME280;23671;38.090;-122.570;2023-02-17T04:24:51;102089.19;;;9.77;60.44
37832;BME280;23671;38.090;-122.570;2023-02-17T04:27:18;102096.47;;;9.72;60.13
37832;BME280;23671;38.090;-122.570;2023-02-17T04:29:45;102091.28;;;9.71;59.97
37832;BME280;23671;38.090;-122.570;2023-02-17T04:32:12;102093.06;;;9.70;60.44
37832;BME280;23671;38.090;-122.570;2023-02-17T04:34:39;102083.59;;;9.66;60.35
37832;BME280;23671;38.090;-122.570;2023-02-17T04:37:06;102088.88;;;9.66;60.77
37832;BME280;23671;38.090;-122.570;2023-02-17T04:39:33;102089.16;;;9.62;60.61
37832;BME280;23671;38.090;-122.570;2023-02-17T04:42:00;102095.53;;;9.58;59.99
37832;BME280;23671;38.090;-122.570;2023-02-17T04:44:27;102100.88;;;9.56;60.61
37832;BME280;23671;38.090;-122.570;2023-02-17T04:46:54;102101.19;;;9.50;60.72
37832;BME280;23671;38.090;-122.570;2023-02-17T04:49:21;102107.56;;;9.46;60.16
37832;BME280;23671;38.090;-122.570;2023-02-17T04:51:48;102104.25;;;9.43;60.62
37832;BME280;23671;38.090;-122.570;2023-02-17T04:54:19;102099.09;;;9.40;60.48
37832;BME280;23671;38.090;-122.570;2023-02-17T04:56:48;102099.38;;;9.35;60.28
37832;BME280;23671;38.090;-122.570;2023-02-17T04:59:15;102104.69;;;9.34;60.57
37832;BME280;23671;38.090;-122.570;2023-02-17T05:01:42;102102.31;;;9.29;60.95
37832;BME280;23671;38.090;-122.570;2023-02-17T05:04:09;102106.81;;;9.27;61.00
37832;BME280;23671;38.090;-122.570;2023-02-17T05:06:36;102103.50;;;9.24;61.05
37832;BME280;23671;38.090;-122.570;2023-02-17T05:09:03;102100.91;;;9.22;60.53
37832;BME280;23671;38.090;-122.570;2023-02-17T05:11:30;102103.78;;;9.18;61.34
37832;BME280;23671;38.090;-122.570;2023-02-17T05:13:57;102106.50;;;9.16;60.67
37832;BME280;23671;38.090;-122.570;2023-02-17T05:16:24;102106.75;;;9.11;60.88
37832;BME280;23671;38.090;-122.570;2023-02-17T05:18:51;102102.56;;;9.07;61.07
37832;BME280;23671;38.090;-122.570;2023-02-17T05:21:18;102112.41;;;9.04;61.29
37832;BME280;23671;38.090;-122.570;2023-02-17T05:23:45;102103.72;;;9.02;61.44
37832;BME280;23671;38.090;-122.570;2023-02-17T05:26:12;102105.72;;;8.97;61.22
37832;BME280;23671;38.090;-122.570;2023-02-17T05:28:39;102110.28;;;8.93;61.05
37832;BME280;23671;38.090;-122.570;2023-02-17T05:31:06;102117.41;;;8.91;61.66
37832;BME280;23671;38.090;-122.570;2023-02-17T05:33:33;102117.59;;;8.88;61.16
37832;BME280;23671;38.090;-122.570;2023-02-17T05:36:05;102126.41;;;8.87;61.51
37832;BME280;23671;38.090;-122.570;2023-02-17T05:38:33;102113.47;;;8.83;61.24
37832;BME280;23671;38.090;-122.570;2023-02-17T05:41:00;102112.63;;;8.82;61.25
37832;BME280;23671;38.090;-122.570;2023-02-17T05:43:27;102112.75;;;8.79;61.68
37832;BME280;23671;38.090;-122.570;2023-02-17T05:45:54;102117.19;;;8.79;61.69
37832;BME280;23671;38.090;-122.570;2023-02-17T05:48:21;102120.91;;;8.75;61.74
37832;BME280;23671;38.090;-122.570;2023-02-17T05:50:48;102130.72;;;8.71;61.47
37832;BME280;23671;38.090;-122.570;2023-02-17T05:53:15;102120.34;;;8.68;61.17
37832;BME280;23671;38.090;-122.570;2023-02-17T05:55:42;102122.19;;;8.66;61.16
37832;BME280;23671;38.090;-122.570;2023-02-17T05:58:09;102127.63;;;8.63;61.35
37832;BME280;23671;38.090;-122.570;2023-02-17T06:00:36;102123.22;;;8.64;61.74
37832;BME280;23671;38.090;-122.570;2023-02-17T06:03:03;102123.34;;;8.61;61.67
37832;BME280;23671;38.090;-122.570;2023-02-17T06:05:31;102125.19;;;8.59;60.94
37832;BME280;23671;38.090;-122.570;2023-02-17T06:07:58;102119.94;;;8.59;61.69
37832;BME280;23671;38.090;-122.570;2023-02-17T06:10:25;102115.34;;;8.62;61.09
37832;BME280;23671;38.090;-122.570;2023-02-17T06:12:52;102118.84;;;8.63;61.17
37832;BME280;23671;38.090;-122.570;2023-02-17T06:15:22;102121.41;;;8.64;60.45
37832;BME280;23671;38.090;-122.570;2023-02-17T06:17:49;102126.63;;;8.66;60.62
37832;BME280;23671;38.090;-122.570;2023-02-17T06:20:16;102108.50;;;8.60;60.58
37832;BME280;23671;38.090;-122.570;2023-02-17T06:22:44;102117.50;;;8.54;60.59
37832;BME280;23671;38.090;-122.570;2023-02-17T06:25:11;102122.84;;;8.53;61.35
37832;BME280;23671;38.090;-122.570;2023-02-17T06:27:38;102120.50;;;8.47;60.85
37832;BME280;23671;38.090;-122.570;2023-02-17T06:30:05;102119.81;;;8.43;61.42
37832;BME280;23671;38.090;-122.570;2023-02-17T06:32:32;102122.53;;;8.42;61.02
37832;BME280;23671;38.090;-122.570;2023-02-17T06:35:00;102120.06;;;8.39;61.38
37832;BME280;23671;38.090;-122.570;2023-02-17T06:37:27;102117.53;;;8.36;61.38
37832;BME280;23671;38.090;-122.570;2023-02-17T06:39:54;102124.16;;;8.44;63.25
37832;BME280;23671;38.090;-122.570;2023-02-17T06:42:21;102124.94;;;8.46;61.91
37832;BME280;23671;38.090;-122.570;2023-02-17T06:44:48;102128.56;;;8.44;62.32
37832;BME280;23671;38.090;-122.570;2023-02-17T06:47:15;102128.94;;;8.36;61.96
37832;BME280;23671;38.090;-122.570;2023-02-17T06:49:42;102135.19;;;8.34;61.70
37832;BME280;23671;38.090;-122.570;2023-02-17T06:52:09;102138.09;;;8.27;62.34
37832;BME280;23671;38.090;-122.570;2023-02-17T06:54:36;102132.09;;;8.24;62.11
37832;BME280;23671;38.090;-122.570;2023-02-17T06:57:03;102139.94;;;8.25;61.89
37832;BME280;23671;38.090;-122.570;2023-02-17T06:59:31;102130.47;;;8.21;61.51
37832;BME280;23671;38.090;-122.570;2023-02-17T07:01:59;102119.16;;;8.19;62.01
37832;BME280;23671;38.090;-122.570;2023-02-17T07:04:26;102122.72;;;8.18;61.87
37832;BME280;23671;38.090;-122.570;2023-02-17T07:06:53;102126.34;;;8.16;62.07
37832;BME280;23671;38.090;-122.570;2023-02-17T07:09:20;102121.94;;;8.16;62.08
37832;BME280;23671;38.090;-122.570;2023-02-17T07:11:47;102126.50;;;8.13;61.79
37832;BME280;23671;38.090;-122.570;2023-02-17T07:14:16;102125.78;;;8.09;61.41
37832;BME280;23671;38.090;-122.570;2023-02-17T07:16:43;102124.94;;;8.09;61.79
37832;BME280;23671;38.090;-122.570;2023-02-17T07:19:11;102127.56;;;8.09;61.98
37832;BME280;23671;38.090;-122.570;2023-02-17T07:21:38;102129.50;;;8.05;61.72
37832;BME280;23671;38.090;-122.570;2023-02-17T07:24:06;102133.09;;;8.03;62.07
37832;BME280;23671;38.090;-122.570;2023-02-17T07:26:36;102126.06;;;8.03;61.81
37832;BME280;23671;38.090;-122.570;2023-02-17T07:29:04;102130.63;;;8.00;61.32
37832;BME280;23671;38.090;-122.570;2023-02-17T07:31:33;102138.72;;;7.95;61.71
37832;BME280;23671;38.090;-122.570;2023-02-17T07:34:01;102137.84;;;7.95;61.19
37832;BME280;23671;38.090;-122.570;2023-02-17T07:36:29;102140.72;;;7.90;61.40
37832;BME280;23671;38.090;-122.570;2023-02-17T07:38:56;102131.97;;;7.90;61.62
37832;BME280;23671;38.090;-122.570;2023-02-17T07:41:24;102144.41;;;7.86;61.15
37832;BME280;23671;38.090;-122.570;2023-02-17T07:43:58;102140.13;;;7.84;61.57
37832;BME280;23671;38.090;-122.570;2023-02-17T07:46:26;102138.44;;;7.83;60.99
37832;BME280;23671;38.090;-122.570;2023-02-17T07:48:55;102130.53;;;7.83;61.23
37832;BME280;23671;38.090;-122.570;2023-02-17T07:51:22;102128.75;;;7.83;61.20
37832;BME280;23671;38.090;-122.570;2023-02-17T07:53:50;102135.81;;;7.83;61.25
37832;BME280;23671;38.090;-122.570;2023-02-17T07:56:20;102137.66;;;7.81;61.06
37832;BME280;23671;38.090;-122.570;2023-02-17T07:58:48;102137.84;;;7.76;61.39
37832;BME280;23671;38.090;-122.570;2023-02-17T08:01:20;102131.78;;;7.74;61.16
37832;BME280;23671;38.090;-122.570;2023-02-17T08:03:48;102136.34;;;7.71;61.11
37832;BME280;23671;38.090;-122.570;2023-02-17T08:06:18;102139.03;;;7.69;60.87
37832;BME280;23671;38.090;-122.570;2023-02-17T08:08:47;102141.78;;;7.66;61.08
37832;BME280;23671;38.090;-122.570;2023-02-17T08:11:32;102141.88;;;7.65;60.72
37832;BME280;23671;38.090;-122.570;2023-02-17T08:14:19;102138.25;;;7.67;61.04
37832;BME280;23671;38.090;-122.570;2023-02-17T08:16:46;102137.41;;;7.67;60.83
37832;BME280;23671;38.090;-122.570;2023-02-17T08:19:13;102136.69;;;7.63;60.83
37832;BME280;23671;38.090;-122.570;2023-02-17T08:21:40;102137.75;;;7.59;60.64
37832;BME280;23671;38.090;-122.570;2023-02-17T08:24:07;102142.06;;;7.60;61.01
37832;BME280;23671;38.090;-122.570;2023-02-17T08:26:34;102138.72;;;7.57;60.83
37832;BME280;23671;38.090;-122.570;2023-02-17T08:29:02;102139.50;;;7.59;60.78
37832;BME280;23671;38.090;-122.570;2023-02-17T08:31:31;102135.19;;;7.58;60.85
37832;BME280;23671;38.090;-122.570;2023-02-17T08:34:01;102131.63;;;7.59;60.24
37832;BME280;23671;38.090;-122.570;2023-02-17T08:36:29;102140.63;;;7.53;60.50
37832;BME280;23671;38.090;-122.570;2023-02-17T08:38:57;102144.16;;;7.52;60.54
37832;BME280;23671;38.090;-122.570;2023-02-17T08:41:27;102134.72;;;7.48;60.75
37832;BME280;23671;38.090;-122.570;2023-02-17T08:43:55;102145.16;;;7.50;60.25
37832;BME280;23671;38.090;-122.570;2023-02-17T08:46:23;102140.00;;;7.48;60.75
37832;BME280;23671;38.090;-122.570;2023-02-17T08:48:50;102149.75;;;7.45;60.39
37832;BME280;23671;38.090;-122.570;2023-02-17T08:51:20;102133.28;;;7.41;60.60
37832;BME280;23671;38.090;-122.570;2023-02-17T08:53:51;102138.53;;;7.41;60.71
37832;BME280;23671;38.090;-122.570;2023-02-17T08:56:20;102135.91;;;7.41;60.52
37832;BME280;23671;38.090;-122.570;2023-02-17T08:58:48;102137.75;;;7.39;60.47
37832;BME280;23671;38.090;-122.570;2023-02-17T09:01:15;102133.50;;;7.37;60.32
37832;BME280;23671;38.090;-122.570;2023-02-17T09:03:45;102126.50;;;7.35;60.39
37832;BME280;23671;38.090;-122.570;2023-02-17T09:06:12;102131.84;;;7.34;60.36
37832;BME280;23671;38.090;-122.570;2023-02-17T09:08:41;102125.81;;;7.32;60.23
37832;BME280;23671;38.090;-122.570;2023-02-17T09:11:09;102124.22;;;7.28;60.78
37832;BME280;23671;38.090;-122.570;2023-02-17T09:13:36;102125.13;;;7.27;60.48
37832;BME280;23671;38.090;-122.570;2023-02-17T09:16:04;102121.84;;;7.22;60.54
37832;BME280;23671;38.090;-122.570;2023-02-17T09:18:31;102120.16;;;7.21;60.54
37832;BME280;23671;38.090;-122.570;2023-02-17T09:21:03;102124.47;;;7.22;60.47
37832;BME280;23671;38.090;-122.570;2023-02-17T09:23:30;102128.16;;;7.18;60.32
37832;BME280;23671;38.090;-122.570;2023-02-17T09:26:06;102133.47;;;7.16;60.37
37832;BME280;23671;38.090;-122.570;2023-02-17T09:28:33;102139.63;;;7.15;60.30
37832;BME280;23671;38.090;-122.570;2023-02-17T09:33:35;102133.72;;;7.10;60.44
37832;BME280;23671;38.090;-122.570;2023-02-17T09:36:03;102130.25;;;7.10;60.20
37832;BME280;23671;38.090;-122.570;2023-02-17T09:38:30;102120.75;;;7.07;60.36
37832;BME280;23671;38.090;-122.570;2023-02-17T09:41:05;102126.03;;;7.06;60.33
37832;BME280;23671;38.090;-122.570;2023-02-17T09:43:34;102129.75;;;7.02;60.29
37832;BME280;23671;38.090;-122.570;2023-02-17T09:46:12;102126.25;;;7.01;60.21
37832;BME280;23671;38.090;-122.570;2023-02-17T09:48:42;102121.19;;;6.97;60.33
37832;BME280;23671;38.090;-122.570;2023-02-17T09:51:15;102125.63;;;6.95;60.45
37832;BME280;23671;38.090;-122.570;2023-02-17T09:56:34;102118.00;;;6.89;60.47
37832;BME280;23671;38.090;-122.570;2023-02-17T10:01:52;102112.13;;;6.84;60.36
37832;BME280;23671;38.090;-122.570;2023-02-17T10:04:26;102108.56;;;6.85;60.30
37832;BME280;23671;38.090;-122.570;2023-02-17T10:09:38;102115.91;;;6.77;60.38
37832;BME280;23671;38.090;-122.570;2023-02-17T10:12:19;102118.72;;;6.72;60.37
37832;BME280;23671;38.090;-122.570;2023-02-17T10:15:18;102117.06;;;6.70;60.31
37832;BME280;23671;38.090;-122.570;2023-02-17T10:18:23;102110.16;;;6.67;60.52
37832;BME280;23671;38.090;-122.570;2023-02-17T10:21:03;102117.31;;;6.64;60.52
37832;BME280;23671;38.090;-122.570;2023-02-17T10:23:33;102104.19;;;6.64;60.52
37832;BME280;23671;38.090;-122.570;2023-02-17T10:37:39;102088.16;;;6.50;60.63
37832;BME280;23671;38.090;-122.570;2023-02-17T10:40:18;102090.78;;;6.50;60.51
37832;BME280;23671;38.090;-122.570;2023-02-17T10:42:47;102085.66;;;6.47;60.54
37832;BME280;23671;38.090;-122.570;2023-02-17T10:45:37;102070.88;;;6.44;60.61
37832;BME280;23671;38.090;-122.570;2023-02-17T10:48:14;102076.19;;;6.42;60.62
37832;BME280;23671;38.090;-122.570;2023-02-17T10:50:43;102079.84;;;6.38;60.66
37832;BME280;23671;38.090;-122.570;2023-02-17T10:53:21;102063.38;;;6.35;61.06
37832;BME280;23671;38.090;-122.570;2023-02-17T10:58:39;102066.97;;;6.32;60.87
37832;BME280;23671;38.090;-122.570;2023-02-17T11:01:12;102067.25;;;6.26;60.95
37832;BME280;23671;38.090;-122.570;2023-02-17T11:03:40;102068.09;;;6.27;60.90
37832;BME280;23671;38.090;-122.570;2023-02-17T11:06:23;102058.63;;;6.23;60.99
37832;BME280;23671;38.090;-122.570;2023-02-17T11:09:03;102054.31;;;6.22;61.10
37832;BME280;23671;38.090;-122.570;2023-02-17T11:11:34;102064.88;;;6.20;61.22
37832;BME280;23671;38.090;-122.570;2023-02-17T11:16:45;102057.19;;;6.16;60.79
37832;BME280;23671;38.090;-122.570;2023-02-17T11:19:21;102060.75;;;6.13;61.17
37832;BME280;23671;38.090;-122.570;2023-02-17T11:21:51;102057.25;;;6.14;61.05
37832;BME280;23671;38.090;-122.570;2023-02-17T11:24:19;102052.09;;;6.11;61.30
37832;BME280;23671;38.090;-122.570;2023-02-17T11:26:56;102052.09;;;6.11;61.54
37832;BME280;23671;38.090;-122.570;2023-02-17T11:29:24;102051.50;;;6.05;61.66
37832;BME280;23671;38.090;-122.570;2023-02-17T11:32:05;102047.22;;;6.02;61.64
37832;BME280;23671;38.090;-122.570;2023-02-17T11:34:39;102041.09;;;6.03;61.35
37832;BME280;23671;38.090;-122.570;2023-02-17T11:39:45;102041.31;;;5.97;61.40
37832;BME280;23671;38.090;-122.570;2023-02-17T11:42:29;102037.91;;;5.95;61.71
37832;BME280;23671;38.090;-122.570;2023-02-17T11:45:01;102034.41;;;5.95;61.69
37832;BME280;23671;38.090;-122.570;2023-02-17T11:47:44;102035.28;;;5.95;61.62
37832;BME280;23671;38.090;-122.570;2023-02-17T11:58:49;102030.13;;;5.92;61.63
37832;BME280;23671;38.090;-122.570;2023-02-17T12:04:31;102017.16;;;5.89;61.50
37832;BME280;23671;38.090;-122.570;2023-02-17T12:18:25;102018.31;;;5.82;62.08
37832;BME280;23671;38.090;-122.570;2023-02-17T12:21:17;102008.78;;;5.80;62.04
37832;BME280;23671;38.090;-122.570;2023-02-17T12:24:27;102007.03;;;5.80;61.66
37832;BME280;23671;38.090;-122.570;2023-02-17T12:27:37;102009.81;;;5.76;61.63
37832;BME280;23671;38.090;-122.570;2023-02-17T12:30:34;102010.03;;;5.70;62.39
37832;BME280;23671;38.090;-122.570;2023-02-17T12:36:03;102003.94;;;5.69;61.89
37832;BME280;23671;38.090;-122.570;2023-02-17T12:38:34;102008.28;;;5.70;62.23
37832;BME280;23671;38.090;-122.570;2023-02-17T12:43:53;102010.22;;;5.65;62.36
37832;BME280;23671;38.090;-122.570;2023-02-17T12:46:45;102011.00;;;5.67;62.29
37832;BME280;23671;38.090;-122.570;2023-02-17T12:49:31;102019.78;;;5.66;61.91
37832;BME280;23671;38.090;-122.570;2023-02-17T12:57:40;102000.09;;;5.56;62.83
37832;BME280;23671;38.090;-122.570;2023-02-17T13:00:54;101995.66;;;5.58;62.17
37832;BME280;23671;38.090;-122.570;2023-02-17T13:03:27;101997.47;;;5.56;62.38
37832;BME280;23671;38.090;-122.570;2023-02-17T13:06:24;101990.56;;;5.53;62.75
37832;BME280;23671;38.090;-122.570;2023-02-17T13:08:58;101994.91;;;5.54;62.28
37832;BME280;23671;38.090;-122.570;2023-02-17T13:11:33;101985.22;;;5.57;62.07
37832;BME280;23671;38.090;-122.570;2023-02-17T13:16:51;101992.47;;;5.50;62.60
37832;BME280;23671;38.090;-122.570;2023-02-17T13:19:29;101979.25;;;5.53;62.46
37832;BME280;23671;38.090;-122.570;2023-02-17T13:21:58;101985.47;;;5.50;62.17
37832;BME280;23671;38.090;-122.570;2023-02-17T13:24:37;101977.75;;;5.46;62.50
37832;BME280;23671;38.090;-122.570;2023-02-17T13:27:34;101982.03;;;5.48;62.23
37832;BME280;23671;38.090;-122.570;2023-02-17T13:32:34;101977.72;;;5.47;62.22
37832;BME280;23671;38.090;-122.570;2023-02-17T13:40:07;101978.75;;;5.43;62.15
37832;BME280;23671;38.090;-122.570;2023-02-17T13:42:51;101974.59;;;5.38;62.74
37832;BME280;23671;38.090;-122.570;2023-02-17T13:47:46;101974.47;;;5.41;62.14
37832;BME280;23671;38.090;-122.570;2023-02-17T13:52:59;101977.31;;;5.35;62.58
37832;BME280;23671;38.090;-122.570;2023-02-17T13:55:26;101978.25;;;5.34;62.63
37832;BME280;23671;38.090;-122.570;2023-02-17T13:57:56;101968.66;;;5.33;62.50
37832;BME280;23671;38.090;-122.570;2023-02-17T14:00:26;101962.53;;;5.34;61.99
37832;BME280;23671;38.090;-122.570;2023-02-17T14:03:32;101971.34;;;5.31;62.63
37832;BME280;23671;38.090;-122.570;2023-02-17T14:05:54;101967.81;;;5.32;62.16
37832;BME280;23671;38.090;-122.570;2023-02-17T14:08:42;101971.41;;;5.30;61.75
37832;BME280;23671;38.090;-122.570;2023-02-17T14:13:41;101976.75;;;5.27;62.61
37832;BME280;23671;38.090;-122.570;2023-02-17T14:16:29;101983.94;;;5.22;62.19
37832;BME280;23671;38.090;-122.570;2023-02-17T14:19:12;101973.47;;;5.22;62.35
37832;BME280;23671;38.090;-122.570;2023-02-17T14:22:03;101983.94;;;5.22;62.07
37832;BME280;23671;38.090;-122.570;2023-02-17T14:24:37;101975.28;;;5.20;62.33
37832;BME280;23671;38.090;-122.570;2023-02-17T14:27:07;101977.84;;;5.21;62.04
37832;BME280;23671;38.090;-122.570;2023-02-17T14:29:52;101986.84;;;5.14;62.47
37832;BME280;23671;38.090;-122.570;2023-02-17T14:32:35;101980.00;;;5.10;62.78
37832;BME280;23671;38.090;-122.570;2023-02-17T14:35:29;101988.72;;;5.11;62.96
37832;BME280;23671;38.090;-122.570;2023-02-17T14:38:19;101978.28;;;5.09;62.36
37832;BME280;23671;38.090;-122.570;2023-02-17T14:40:47;101988.66;;;5.12;62.47